Terminal Aerodrome Forecast
Issued by NWS

Home | Current Version | Previous Version | Text Only | Print | Product List | Glossary On
Versions: 1 2 3 4 5 6 7 8 9 10 11 12 13
000
FTUS46 KMTR 181137
TAFSTS
TAF
KSTS 181137Z 1812/1912 VRB03KT P6SM SCT250
     FM182100 19005KT P6SM BKN250
     FM190400 VRB03KT P6SM OVC250=

USA.gov is the U.S. government's official web portal to all federal, state and local government web resources and services.